Indianapolis, Indiana
Traffic Map
Current Weather Conditions
Indianapolis, Indiana
Broken Clouds
Broken Clouds
21°
Feels Like: 21°
Wind Chill: 21° Ceiling: 8000
Heat Index: 21° Visibility: 8mi
Dew Point: 19° Wind: 3mph
Humidity: 87% Direction: 210° (SSW)
Pressure: 30.1in Gusts: 0mph
Raw Report DataKIND 010954Z 21003KT 8SM BKN080 21/19 A3010 RMK AO2 SLP187 T02110189
Traffic Incident Summary
Active as of:
Severity:
Category:
InformationThere was an issue retrieving the traffic information for this location. Please try a different location or try again shortly.
Advertisements
Track Severe Weather on mobile